Time;durP1;ratioP1;P1;durP2;ratioP2;P2;SDS_P1;SDS_P2;PMS_P1;PMS_P2;Temp;Humidity;BMP_temperature;BMP_pressure;BME280_temperature;BME280_humidity;BME280_pressure;Samples;Min_cycle;Max_cycle;Signal;HPM_P1;HPM_P2
2023/01/10 06:03:23;;;;;;;8.90;1.50;;;5.30;99.90;;;;;;5045749;23;20052;-73
2023/01/10 06:05:49;;;;;;;6.70;1.50;;;5.40;99.90;;;;;;4926275;29;20036;-72
2023/01/10 06:08:15;;;;;;;7.28;1.70;;;5.40;99.90;;;;;;4927086;29;20047;-71
2023/01/10 06:10:42;;;;;;;9.65;1.63;;;5.40;99.90;;;;;;4925110;29;20063;-71
2023/01/10 06:13:08;;;;;;;7.00;1.67;;;5.40;99.90;;;;;;4927182;29;20028;-72
2023/01/10 06:15:35;;;;;;;6.75;1.65;;;5.50;99.90;;;;;;4926651;29;20039;-70
2023/01/10 06:18:01;;;;;;;7.30;1.23;;;5.50;99.90;;;;;;4925729;29;20028;-69
2023/01/10 06:20:26;;;;;;;10.68;1.45;;;5.50;99.90;;;;;;4909395;29;20036;-71
2023/01/10 06:22:53;;;;;;;8.52;1.67;;;5.50;99.90;;;;;;4927288;29;20028;-71
2023/01/10 06:25:18;;;;;;;6.80;1.13;;;5.50;99.90;;;;;;4926055;29;20203;-70
2023/01/10 06:27:44;;;;;;;10.85;2.97;;;5.50;99.90;;;;;;4926405;29;20079;-71
2023/01/10 06:30:12;;;;;;;8.88;1.48;;;5.50;99.90;;;;;;4927065;29;20032;-72
2023/01/10 06:32:39;;;;;;;8.05;1.30;;;5.50;99.90;;;;;;4926493;29;20096;-71
2023/01/10 06:35:05;;;;;;;8.93;1.20;;;5.50;99.90;;;;;;4927008;29;20036;-72
2023/01/10 06:37:31;;;;;;;9.45;1.60;;;5.50;99.90;;;;;;4926090;29;20032;-71
2023/01/10 06:39:57;;;;;;;7.97;1.20;;;5.50;99.90;;;;;;4926963;29;20300;-73
2023/01/10 06:42:23;;;;;;;7.25;1.95;;;5.50;99.90;;;;;;4926934;29;20028;-71
2023/01/10 06:44:49;;;;;;;13.38;2.38;;;5.50;99.90;;;;;;4926555;29;20028;-71
2023/01/10 06:47:14;;;;;;;9.40;1.30;;;5.50;99.90;;;;;;4926756;29;20034;-72
2023/01/10 06:49:40;;;;;;;10.35;1.77;;;5.50;99.90;;;;;;4926216;29;20040;-71
2023/01/10 06:52:06;;;;;;;7.90;1.63;;;5.50;99.90;;;;;;4926312;29;20032;-71
2023/01/10 06:54:31;;;;;;;6.95;1.30;;;5.50;99.90;;;;;;4926496;29;20036;-72
2023/01/10 06:56:57;;;;;;;8.32;1.10;;;5.50;99.90;;;;;;4928986;29;20024;-71
2023/01/10 06:59:23;;;;;;;7.35;1.13;;;5.50;99.90;;;;;;4926755;29;20047;-71
2023/01/10 07:01:49;;;;;;;7.85;1.45;;;5.40;99.90;;;;;;4928370;29;20099;-70
2023/01/10 07:04:14;;;;;;;8.88;1.52;;;5.50;99.90;;;;;;4944710;29;20063;-70
2023/01/10 07:06:40;;;;;;;5.15;1.30;;;5.50;99.90;;;;;;4926084;29;20302;-71
2023/01/10 07:09:07;;;;;;;8.05;1.55;;;5.50;99.90;;;;;;4926709;29;20032;-73
2023/01/10 07:11:34;;;;;;;5.80;1.48;;;5.50;99.90;;;;;;4944661;29;20094;-70
2023/01/10 07:14:00;;;;;;;7.20;1.13;;;5.50;99.90;;;;;;4934895;29;20032;-71
2023/01/10 07:16:27;;;;;;;7.95;1.35;;;5.50;99.90;;;;;;4925003;29;20032;-70
2023/01/10 07:18:52;;;;;;;7.07;1.35;;;5.50;99.90;;;;;;4944997;29;20038;-70
2023/01/10 07:21:18;;;;;;;8.52;1.45;;;5.50;99.90;;;;;;4944960;29;20028;-70
2023/01/10 07:23:50;;;;;;;7.82;1.58;;;5.50;99.90;;;;;;4944732;29;20034;-72
2023/01/10 07:26:17;;;;;;;6.57;1.60;;;5.50;99.90;;;;;;4945329;29;20042;-72
2023/01/10 07:28:47;;;;;;;5.43;1.27;;;5.50;99.90;;;;;;4944758;29;20039;-70
2023/01/10 07:31:13;;;;;;;8.73;1.85;;;5.50;99.90;;;;;;4944969;29;20043;-71
2023/01/10 07:33:39;;;;;;;8.90;1.40;;;5.60;99.90;;;;;;4943594;29;20168;-71
2023/01/10 07:36:05;;;;;;;9.27;1.55;;;5.50;99.90;;;;;;4944562;29;20035;-72
2023/01/10 07:38:31;;;;;;;7.45;1.60;;;5.50;99.90;;;;;;4944267;29;20066;-72
2023/01/10 07:40:57;;;;;;;6.88;1.40;;;5.50;99.90;;;;;;4944618;29;20035;-71
2023/01/10 07:43:22;;;;;;;7.70;1.58;;;5.50;99.90;;;;;;4943583;29;20046;-73
2023/01/10 07:45:48;;;;;;;7.15;1.08;;;5.50;99.90;;;;;;4944293;29;20095;-71
2023/01/10 07:48:14;;;;;;;12.27;1.70;;;5.60;99.90;;;;;;4944716;29;20262;-72
2023/01/10 07:50:40;;;;;;;5.45;1.08;;;5.60;99.90;;;;;;4942649;29;20015;-70
2023/01/10 07:53:07;;;;;;;8.30;1.63;;;5.60;99.90;;;;;;4944703;29;20082;-72
2023/01/10 07:55:35;;;;;;;9.45;1.52;;;5.60;99.90;;;;;;4944095;29;20047;-72
2023/01/10 07:58:01;;;;;;;6.60;1.60;;;5.70;99.90;;;;;;4944190;29;20051;-72
2023/01/10 08:00:27;;;;;;;6.07;1.38;;;5.70;99.90;;;;;;4943863;29;20036;-71
2023/01/10 08:02:53;;;;;;;8.38;1.80;;;5.70;99.90;;;;;;4944628;29;20115;-69
2023/01/10 08:05:19;;;;;;;6.00;1.20;;;5.70;99.90;;;;;;4944684;29;20317;-72
2023/01/10 08:07:45;;;;;;;6.88;1.08;;;5.70;99.90;;;;;;4943310;29;20096;-71
2023/01/10 08:10:11;;;;;;;6.80;1.73;;;5.70;99.90;;;;;;4942028;29;20112;-72
2023/01/10 08:12:37;;;;;;;6.40;1.20;;;5.80;99.90;;;;;;4943808;29;20036;-71
2023/01/10 08:15:09;;;;;;;7.40;1.27;;;5.80;99.90;;;;;;4944501;29;20309;-74
2023/01/10 08:17:36;;;;;;;10.38;1.67;;;5.80;99.90;;;;;;4942586;29;20079;-72
2023/01/10 08:20:02;;;;;;;7.68;1.60;;;5.80;99.90;;;;;;4944376;29;20047;-73
2023/01/10 08:22:28;;;;;;;11.15;1.63;;;5.80;99.90;;;;;;4944143;29;20032;-74
2023/01/10 08:24:54;;;;;;;7.03;1.33;;;5.80;99.90;;;;;;4944476;29;20107;-74
2023/01/10 08:27:19;;;;;;;5.50;1.75;;;5.90;99.90;;;;;;4944373;29;20040;-74
2023/01/10 08:29:45;;;;;;;10.88;1.90;;;5.90;99.90;;;;;;4947661;29;20032;-72
2023/01/10 08:32:11;;;;;;;9.38;2.00;;;5.90;99.90;;;;;;4948253;29;20107;-72
2023/01/10 08:34:37;;;;;;;7.18;1.60;;;6.00;99.90;;;;;;4947460;29;20035;-70
2023/01/10 08:37:03;;;;;;;6.88;1.55;;;6.00;99.90;;;;;;4947797;29;20035;-70
2023/01/10 08:39:29;;;;;;;8.48;1.58;;;6.00;99.90;;;;;;4946098;29;20043;-70
2023/01/10 08:41:56;;;;;;;6.45;1.40;;;6.10;99.90;;;;;;4944950;29;20061;-71
2023/01/10 08:44:22;;;;;;;7.63;1.20;;;6.10;99.90;;;;;;4948117;29;20031;-71
2023/01/10 08:46:48;;;;;;;7.88;1.42;;;6.10;99.90;;;;;;4947203;29;20347;-72
2023/01/10 08:49:14;;;;;;;8.98;1.17;;;6.10;99.90;;;;;;4947703;29;20027;-71
2023/01/10 08:51:40;;;;;;;6.30;1.02;;;6.20;99.90;;;;;;4946811;29;20331;-72
2023/01/10 08:54:05;;;;;;;6.43;1.40;;;6.30;99.90;;;;;;4946698;29;20042;-72
2023/01/10 08:56:31;;;;;;;6.57;1.30;;;6.30;99.90;;;;;;4947208;29;20023;-71
2023/01/10 08:58:57;;;;;;;6.78;1.45;;;6.40;99.90;;;;;;4946225;29;20042;-72
2023/01/10 09:01:23;;;;;;;6.38;1.65;;;6.40;99.90;;;;;;4946934;29;20286;-70
2023/01/10 09:03:48;;;;;;;6.03;1.40;;;6.40;99.90;;;;;;4946038;29;20198;-70
2023/01/10 09:06:14;;;;;;;6.85;1.73;;;6.40;99.90;;;;;;4947446;29;20035;-71
2023/01/10 09:08:40;;;;;;;7.05;1.48;;;6.50;99.90;;;;;;4946960;29;20218;-72
2023/01/10 09:11:06;;;;;;;7.90;1.40;;;6.50;99.90;;;;;;4937264;29;20099;-71
2023/01/10 09:13:32;;;;;;;7.80;1.50;;;6.60;99.90;;;;;;4927535;29;20321;-70
2023/01/10 09:15:58;;;;;;;5.60;1.15;;;6.50;99.90;;;;;;4931064;29;20098;-71
2023/01/10 09:18:25;;;;;;;11.00;1.70;;;6.60;99.90;;;;;;4932649;29;20263;-73
2023/01/10 09:20:51;;;;;;;6.18;1.50;;;6.50;99.90;;;;;;4925997;29;20134;-72
2023/01/10 09:23:20;;;;;;;7.18;1.77;;;6.50;99.90;;;;;;4947569;29;20036;-71
2023/01/10 09:25:46;;;;;;;;;;;6.50;99.90;;;;;;4946978;29;20050;-71
2023/01/10 09:28:12;;;;;;;11.90;2.22;;;6.50;99.90;;;;;;4947468;29;19903;-71
2023/01/10 09:30:38;;;;;;;8.25;1.95;;;6.50;99.90;;;;;;4944126;29;20032;-71
2023/01/10 09:33:05;;;;;;;5.70;1.38;;;6.50;99.90;;;;;;4929288;29;20020;-73
2023/01/10 09:35:31;;;;;;;4.15;1.00;;;6.50;99.90;;;;;;4946227;29;20028;-71
2023/01/10 09:38:02;;;;;;;5.55;1.27;;;6.40;99.90;;;;;;4946858;29;20051;-72
2023/01/10 09:41:10;;;;;;;9.25;1.50;;;6.30;99.90;;;;;;4942926;29;20035;-72
2023/01/10 09:43:54;;;;;;;8.15;1.75;;;6.30;99.90;;;;;;4929666;29;20233;-70
2023/01/10 09:46:44;;;;;;;5.32;2.75;;;6.30;99.90;;;;;;4946755;29;20040;-73
2023/01/10 09:49:13;;;;;;;6.25;1.50;;;6.40;99.90;;;;;;4946713;29;20055;-72
2023/01/10 09:51:42;;;;;;;6.13;1.52;;;6.50;99.90;;;;;;4946001;29;20081;-72
2023/01/10 09:54:25;;;;;;;7.82;2.10;;;6.60;99.90;;;;;;4946072;29;20036;-72
2023/01/10 09:56:52;;;;;;;6.82;1.58;;;6.60;99.90;;;;;;4946528;29;20325;-72
2023/01/10 09:59:29;;;;;;;7.53;1.50;;;6.60;99.90;;;;;;4928074;29;20044;-72
2023/01/10 10:02:05;;;;;;;9.20;1.35;;;6.70;99.90;;;;;;4926396;29;20059;-74
2023/01/10 10:04:39;;;;;;;8.52;1.52;;;6.60;99.90;;;;;;4931808;29;20096;-73
2023/01/10 10:07:13;;;;;;;5.18;1.40;;;6.50;99.90;;;;;;4946185;29;20031;-73
2023/01/10 10:09:39;;;;;;;7.30;1.70;;;6.50;99.90;;;;;;4945883;29;20035;-73
2023/01/10 10:12:16;;;;;;;8.27;1.55;;;6.40;99.90;;;;;;4946536;29;20074;-72
2023/01/10 10:14:53;;;;;;;4.45;1.30;;;6.40;99.90;;;;;;4945808;29;20078;-73
2023/01/10 10:17:26;;;;;;;6.22;1.67;;;6.40;99.90;;;;;;4946461;29;20032;-73
2023/01/10 10:20:05;;;;;;;9.75;1.48;;;6.40;99.90;;;;;;4946126;29;20107;-73
2023/01/10 10:22:46;;;;;;;8.20;1.60;;;6.50;99.90;;;;;;4944713;29;20141;-70
2023/01/10 10:25:27;;;;;;;7.05;1.25;;;6.60;99.90;;;;;;4946151;29;20047;-73
2023/01/10 10:28:20;;;;;;;6.50;1.73;;;6.70;99.90;;;;;;4946855;29;20094;-74
2023/01/10 10:31:14;;;;;;;6.03;1.50;;;7.00;99.90;;;;;;4964699;29;20373;-73
2023/01/10 10:34:19;;;;;;;5.43;1.38;;;7.00;99.90;;;;;;4964739;29;20039;-71
2023/01/10 10:37:00;;;;;;;6.82;1.48;;;7.00;99.90;;;;;;4955822;29;20051;-72
2023/01/10 10:39:37;;;;;;;5.22;1.50;;;7.10;99.90;;;;;;4965335;28;20042;-73
2023/01/10 10:42:09;;;;;;;4.68;1.10;;;7.10;99.90;;;;;;4952544;28;20094;-72
2023/01/10 10:44:42;;;;;;;8.25;1.27;;;7.00;99.90;;;;;;4945230;29;20206;-72
2023/01/10 10:47:17;;;;;;;9.23;1.67;;;7.00;99.90;;;;;;4945181;29;20111;-72
2023/01/10 10:49:53;;;;;;;6.55;1.30;;;6.90;99.90;;;;;;4945387;29;20028;-72
2023/01/10 10:52:37;;;;;;;7.75;1.50;;;6.90;99.90;;;;;;4926025;29;20175;-71
2023/01/10 10:55:05;;;;;;;7.30;1.33;;;6.80;99.90;;;;;;4926769;29;20054;-72
2023/01/10 10:57:33;;;;;;;10.07;1.50;;;7.10;99.90;;;;;;4925999;29;20059;-71
2023/01/10 11:00:01;;;;;;;6.38;1.30;;;7.40;99.90;;;;;;4926597;29;20044;-73
2023/01/10 11:02:37;;;;;;;4.80;1.65;;;7.80;99.90;;;;;;4925996;29;20121;-74
2023/01/10 11:05:07;;;;;;;7.13;1.75;;;8.00;99.90;;;;;;4935249;29;20079;-72
2023/01/10 11:07:35;;;;;;;5.28;1.35;;;8.10;99.90;;;;;;4942373;29;20028;-74
2023/01/10 11:12:50;;;;;;;4.80;1.20;;;8.10;99.90;;;;;;4944962;29;20629;-73
2023/01/10 11:15:35;;;;;;;6.80;1.10;;;8.00;99.90;;;;;;4945476;29;20035;-72
2023/01/10 11:18:09;;;;;;;4.78;1.00;;;7.90;99.90;;;;;;4945209;29;20098;-75
2023/01/10 11:20:36;;;;;;;4.45;1.17;;;7.70;99.90;;;;;;4945024;29;20138;-72
2023/01/10 11:23:03;;;;;;;5.68;1.95;;;7.60;99.90;;;;;;4943519;29;20326;-74
2023/01/10 11:25:29;;;;;;;5.78;1.55;;;7.50;99.90;;;;;;4944133;29;20051;-72
2023/01/10 11:27:59;;;;;;;7.10;1.65;;;7.40;99.90;;;;;;4944779;29;20253;-76
2023/01/10 11:30:33;;;;;;;5.30;0.93;;;7.40;99.90;;;;;;4945166;29;20043;-75
2023/01/10 11:33:01;;;;;;;3.92;1.38;;;7.50;99.90;;;;;;4943817;29;20031;-73
2023/01/10 11:35:35;;;;;;;5.80;1.50;;;7.60;99.90;;;;;;4944474;29;20031;-79
2023/01/10 11:38:12;;;;;;;5.05;0.90;;;7.70;99.90;;;;;;4944453;29;20115;-75
2023/01/10 11:40:51;;;;;;;4.97;0.98;;;7.80;99.90;;;;;;4944345;29;20135;-74
2023/01/10 11:43:38;;;;;;;4.30;1.10;;;8.00;99.90;;;;;;4926083;29;20039;-74
2023/01/10 11:46:20;;;;;;;5.53;1.10;;;8.00;99.90;;;;;;4926004;29;20031;-73
2023/01/10 11:49:02;;;;;;;4.95;1.42;;;7.90;99.90;;;;;;4925451;29;20112;-75
2023/01/10 11:51:32;;;;;;;6.70;1.02;;;7.90;99.90;;;;;;4938582;29;20099;-73
2023/01/10 11:54:01;;;;;;;7.28;1.13;;;8.00;99.90;;;;;;4944490;29;20028;-74
2023/01/10 11:56:35;;;;;;;5.07;1.20;;;7.90;99.90;;;;;;4944401;29;20087;-77
2023/01/10 11:59:11;;;;;;;8.27;1.13;;;7.90;99.90;;;;;;4943672;29;20056;-76
2023/01/10 12:01:46;;;;;;;6.07;1.00;;;7.90;99.90;;;;;;4943883;29;20051;-76
2023/01/10 12:04:20;;;;;;;5.70;1.35;;;8.00;99.90;;;;;;4947786;29;20031;-74
2023/01/10 12:06:49;;;;;;;4.72;0.90;;;8.20;99.90;;;;;;4947900;29;20348;-74
2023/01/10 12:09:57;;;;;;;6.47;1.50;;;9.00;99.90;;;;;;4948570;29;20035;-73
2023/01/10 12:12:27;;;;;;;6.28;1.10;;;9.80;99.90;;;;;;4892735;29;20207;-75
2023/01/10 12:14:56;;;;;;;4.45;1.20;;;9.40;99.90;;;;;;4942953;29;20381;-73
2023/01/10 12:17:29;;;;;;;5.32;1.80;;;9.30;99.90;;;;;;4948601;29;20087;-73
2023/01/10 12:19:59;;;;;;;6.45;1.02;;;9.30;99.90;;;;;;4948747;29;20125;-72
2023/01/10 12:22:34;;;;;;;7.15;1.38;;;9.90;99.90;;;;;;4948547;29;20035;-73
2023/01/10 12:25:05;;;;;;;7.30;1.55;;;10.90;99.90;;;;;;4948074;29;20035;-73
2023/01/10 12:27:31;;;;;;;6.20;1.30;;;12.00;97.70;;;;;;4947910;29;20051;-74
2023/01/10 12:30:15;;;;;;;5.47;0.82;;;12.90;96.60;;;;;;4948111;29;20345;-75
2023/01/10 12:32:46;;;;;;;7.18;1.27;;;13.20;94.50;;;;;;4947647;29;20374;-75
2023/01/10 12:35:37;;;;;;;6.55;1.27;;;12.50;95.30;;;;;;4948196;29;20040;-76
2023/01/10 12:44:27;;;;;;;5.93;1.17;;;9.60;96.80;;;;;;4946758;29;20321;-72
2023/01/10 12:47:02;;;;;;;5.00;1.55;;;9.30;98.60;;;;;;4947926;29;20062;-74
2023/01/10 12:49:35;;;;;;;4.15;1.20;;;9.30;99.00;;;;;;4944705;29;20047;-75
2023/01/10 12:52:13;;;;;;;5.20;1.08;;;9.90;98.70;;;;;;4946427;29;20313;-74
2023/01/10 12:54:38;;;;;;;8.25;1.95;;;10.00;97.40;;;;;;4947214;29;20258;-74
2023/01/10 12:57:34;;;;;;;6.68;1.30;;;10.00;97.00;;;;;;4947780;29;20078;-75
2023/01/10 13:00:03;;;;;;;5.30;0.90;;;9.60;96.70;;;;;;4947631;29;20344;-74
2023/01/10 13:02:42;;;;;;;5.43;1.00;;;9.20;96.40;;;;;;4946703;29;20071;-73
2023/01/10 13:05:19;;;;;;;6.60;0.98;;;8.80;96.60;;;;;;4946339;29;20031;-73
2023/01/10 13:07:47;;;;;;;6.68;1.10;;;8.60;97.00;;;;;;4947325;29;20098;-73
2023/01/10 13:10:17;;;;;;;4.65;0.82;;;8.40;97.20;;;;;;4947071;29;20225;-73
2023/01/10 13:12:51;;;;;;;4.57;0.70;;;8.40;97.30;;;;;;4947117;29;20032;-73
2023/01/10 13:15:26;;;;;;;4.65;1.13;;;8.40;97.30;;;;;;4947239;29;20027;-72
2023/01/10 13:17:59;;;;;;;6.40;1.13;;;8.40;97.40;;;;;;4947126;29;20042;-74
2023/01/10 13:20:36;;;;;;;7.72;1.40;;;8.60;97.70;;;;;;4947505;29;20036;-74
2023/01/10 13:23:13;;;;;;;3.67;0.77;;;8.60;97.50;;;;;;4947491;29;20042;-72
2023/01/10 13:25:39;;;;;;;5.50;0.82;;;8.60;97.30;;;;;;4945655;29;20308;-74
2023/01/10 13:28:06;;;;;;;6.00;1.20;;;8.50;96.90;;;;;;4947531;29;20042;-75
2023/01/10 13:30:36;;;;;;;5.32;1.15;;;8.40;97.00;;;;;;4946582;29;20040;-74
2023/01/10 13:33:07;;;;;;;6.22;0.95;;;8.40;96.90;;;;;;4946843;29;20257;-74
2023/01/10 13:35:57;;;;;;;4.22;1.00;;;8.30;97.20;;;;;;4946842;29;20295;-75
2023/01/10 13:38:54;;;;;;;4.68;1.45;;;8.30;97.10;;;;;;4946304;29;20075;-75
2023/01/10 13:44:06;;;;;;;6.82;1.15;;;8.60;96.90;;;;;;4946926;29;20095;-76
2023/01/10 13:46:38;;;;;;;4.70;0.90;;;8.70;96.60;;;;;;4944895;29;20035;-75
2023/01/10 13:49:10;;;;;;;3.97;1.00;;;9.00;96.50;;;;;;4946628;29;20145;-76
2023/01/10 13:51:37;;;;;;;4.25;1.15;;;9.30;95.70;;;;;;4946611;29;20058;-76
2023/01/10 13:54:17;;;;;;;4.68;1.27;;;9.20;95.50;;;;;;4945897;29;20313;-76
2023/01/10 13:56:46;;;;;;;3.53;0.80;;;9.30;95.30;;;;;;4945036;29;20031;-76
2023/01/10 14:02:44;;;;;;;5.07;0.68;;;9.00;95.80;;;;;;4945307;29;20305;-78
2023/01/10 14:05:35;;;;;;;5.93;1.20;;;9.00;96.10;;;;;;4946693;29;20031;-77
2023/01/10 14:11:58;;;;;;;8.10;1.25;;;9.00;96.00;;;;;;4946807;29;20133;-76
2023/01/10 14:14:51;;;;;;;6.35;1.15;;;9.40;95.60;;;;;;4946597;29;20035;-77
2023/01/10 14:17:38;;;;;;;4.95;0.88;;;9.20;95.30;;;;;;4945319;29;20039;-75
2023/01/10 14:20:19;;;;;;;6.45;0.82;;;9.50;95.20;;;;;;4944917;29;20152;-76
2023/01/10 14:23:27;;;;;;;3.95;0.98;;;9.50;94.70;;;;;;4928773;29;20209;-76
2023/01/10 14:25:56;;;;;;;3.50;0.95;;;9.80;95.10;;;;;;4944605;29;20042;-76
2023/01/10 14:28:28;;;;;;;4.88;1.10;;;10.00;94.10;;;;;;4945836;29;20032;-75
2023/01/10 14:31:12;;;;;;;6.50;0.98;;;9.90;94.60;;;;;;4944866;29;20321;-76
2023/01/10 14:33:42;;;;;;;3.95;0.80;;;9.70;94.10;;;;;;4944731;29;20055;-77
2023/01/10 14:36:14;;;;;;;3.95;0.98;;;9.50;93.80;;;;;;4944331;29;20345;-75
2023/01/10 14:38:43;;;;;;;6.55;1.10;;;9.30;94.00;;;;;;4945349;29;20042;-76
2023/01/10 14:41:21;;;;;;;5.82;1.13;;;9.00;94.90;;;;;;4945746;29;20047;-76
2023/01/10 14:44:12;;;;;;;3.50;1.00;;;8.70;94.90;;;;;;4945459;29;20284;-75
2023/01/10 14:46:44;;;;;;;3.95;0.80;;;8.60;95.30;;;;;;4944267;29;20036;-75
2023/01/10 14:49:48;;;;;;;5.97;1.23;;;8.40;95.50;;;;;;4945841;29;20028;-75
2023/01/10 14:52:22;;;;;;;4.47;0.85;;;8.30;96.00;;;;;;4926448;29;20071;-76
2023/01/10 14:55:08;;;;;;;4.03;1.08;;;8.10;96.30;;;;;;4926247;29;20103;-76
2023/01/10 14:57:34;;;;;;;6.15;2.45;;;8.00;96.30;;;;;;4924971;29;20168;-75
2023/01/10 15:00:13;;;;;;;5.95;1.70;;;7.90;96.70;;;;;;4926584;29;20318;-77
2023/01/10 15:02:47;;;;;;;8.90;2.90;;;7.80;96.70;;;;;;4925803;29;20129;-76
2023/01/10 15:05:48;;;;;;;7.55;3.00;;;7.70;97.20;;;;;;4936738;29;20422;-75
2023/01/10 15:08:27;;;;;;;9.13;3.08;;;7.60;97.60;;;;;;4938919;29;20499;-77
2023/01/10 15:11:11;;;;;;;5.85;1.77;;;7.60;97.90;;;;;;4945324;29;20103;-76
2023/01/10 15:13:51;;;;;;;8.95;1.83;;;7.50;98.10;;;;;;4945041;29;20028;-76
2023/01/10 15:16:20;;;;;;;6.68;1.92;;;7.40;98.20;;;;;;4944934;29;20272;-77
2023/01/10 15:18:47;;;;;;;4.60;1.20;;;7.30;98.60;;;;;;4944572;29;20048;-77
2023/01/10 15:21:14;;;;;;;9.98;1.65;;;7.30;98.30;;;;;;4944267;29;20044;-76
2023/01/10 15:23:43;;;;;;;8.80;2.03;;;7.20;98.50;;;;;;4944776;29;20035;-77
2023/01/10 15:26:17;;;;;;;6.93;1.83;;;7.20;98.90;;;;;;4944978;29;20099;-77
2023/01/10 15:29:01;;;;;;;8.30;2.05;;;7.10;98.40;;;;;;4943582;29;20031;-75
2023/01/10 15:31:28;;;;;;;7.18;1.30;;;7.00;98.60;;;;;;4945040;29;20031;-76
2023/01/10 15:33:57;;;;;;;6.85;2.58;;;7.00;98.50;;;;;;4945108;29;20035;-76
2023/01/10 15:36:26;;;;;;;7.03;1.73;;;6.90;98.90;;;;;;4944023;29;20309;-76
2023/01/10 15:39:02;;;;;;;9.25;4.13;;;6.80;99.20;;;;;;4945147;29;20320;-76
2023/01/10 15:44:57;;;;;;;6.35;1.30;;;6.80;99.50;;;;;;4944568;29;20091;-77
2023/01/10 15:47:48;;;;;;;4.90;1.10;;;6.70;99.50;;;;;;4944734;29;20032;-77
2023/01/10 15:50:39;;;;;;;7.13;1.27;;;6.60;99.80;;;;;;4945017;29;20309;-77
2023/01/10 15:53:09;;;;;;;6.75;1.30;;;6.50;99.90;;;;;;4944744;29;20058;-77
2023/01/10 15:56:07;;;;;;;6.07;2.30;;;6.50;99.90;;;;;;4944460;29;20066;-76
2023/01/10 15:58:35;;;;;;;9.98;2.17;;;6.40;99.90;;;;;;4943072;29;20099;-76
2023/01/10 16:01:03;;;;;;;4.40;1.10;;;6.40;99.90;;;;;;4943741;29;20036;-76
2023/01/10 16:04:03;;;;;;;11.63;2.78;;;6.30;99.90;;;;;;4943912;29;20053;-75
2023/01/10 16:06:49;;;;;;;12.93;4.25;;;6.30;99.90;;;;;;4924353;29;20060;-76
2023/01/10 16:09:21;;;;;;;7.20;2.03;;;6.30;99.90;;;;;;4925453;29;20317;-74
2023/01/10 16:15:34;;;;;;;7.63;1.55;;;6.10;99.90;;;;;;4925594;29;20039;-76
2023/01/10 16:18:03;;;;;;;7.95;1.40;;;6.10;99.90;;;;;;4925429;29;20036;-76
2023/01/10 16:20:42;;;;;;;6.55;1.20;;;6.00;99.90;;;;;;4923914;29;20044;-76
2023/01/10 16:23:21;;;;;;;6.70;1.38;;;5.90;99.90;;;;;;4924209;29;20091;-76
2023/01/10 16:25:50;;;;;;;5.72;1.40;;;5.90;99.90;;;;;;4924711;29;20329;-76
2023/01/10 16:28:20;;;;;;;5.10;1.17;;;5.90;99.90;;;;;;4924158;29;20058;-76
2023/01/10 16:30:47;;;;;;;5.55;1.20;;;5.90;99.90;;;;;;4938161;29;20031;-76
2023/01/10 16:33:25;;;;;;;7.90;1.10;;;5.90;99.90;;;;;;4944219;29;20039;-78
2023/01/10 16:35:56;;;;;;;6.35;1.17;;;5.80;99.90;;;;;;4943726;29;20031;-73
2023/01/10 16:38:23;;;;;;;4.53;1.10;;;5.80;99.90;;;;;;4943948;29;20261;-72
2023/01/10 16:40:54;;;;;;;7.73;1.83;;;5.80;99.90;;;;;;4943302;29;20099;-73
2023/01/10 16:43:20;;;;;;;5.10;1.13;;;5.80;99.90;;;;;;4925048;29;20035;-74
2023/01/10 16:46:03;;;;;;;5.57;1.83;;;5.80;99.90;;;;;;4918436;29;20250;-73
2023/01/10 16:48:30;;;;;;;6.28;1.10;;;5.90;99.90;;;;;;4924010;29;20039;-72
2023/01/10 16:51:19;;;;;;;5.60;1.63;;;5.90;99.90;;;;;;4938277;29;20031;-71
2023/01/10 16:53:46;;;;;;;6.50;1.80;;;5.90;99.90;;;;;;4946564;29;20310;-72
2023/01/10 16:56:15;;;;;;;6.85;1.63;;;5.90;99.90;;;;;;4946246;29;20397;-72
2023/01/10 16:58:40;;;;;;;5.00;1.90;;;5.90;99.90;;;;;;4945676;29;20032;-73
2023/01/10 17:01:11;;;;;;;6.75;2.90;;;5.90;99.90;;;;;;4928079;29;20199;-74
2023/01/10 17:03:38;;;;;;;11.65;3.72;;;5.90;99.90;;;;;;4928369;29;20067;-76
2023/01/10 17:06:04;;;;;;;9.32;4.20;;;5.90;99.90;;;;;;4945586;29;20034;-74
2023/01/10 17:08:30;;;;;;;7.18;2.95;;;5.90;99.90;;;;;;4946932;29;20103;-72
2023/01/10 17:11:05;;;;;;;8.15;4.45;;;5.90;99.90;;;;;;4948139;29;20051;-76
2023/01/10 17:13:38;;;;;;;9.07;2.92;;;5.90;99.90;;;;;;4947770;29;20063;-74
2023/01/10 17:16:04;;;;;;;7.00;2.42;;;5.90;99.90;;;;;;4931319;29;20099;-72
2023/01/10 17:18:30;;;;;;;6.00;2.55;;;5.90;99.90;;;;;;4946999;29;20075;-72
2023/01/10 17:20:57;;;;;;;6.97;2.20;;;5.90;99.90;;;;;;4930758;29;20041;-71
2023/01/10 17:23:23;;;;;;;6.53;1.65;;;5.90;99.90;;;;;;4947777;29;20036;-71
2023/01/10 17:25:56;;;;;;;8.30;2.90;;;6.00;99.90;;;;;;4947270;29;20024;-71
2023/01/10 17:28:22;;;;;;;4.55;1.80;;;6.00;99.90;;;;;;4947169;29;20066;-71
2023/01/10 17:30:47;;;;;;;7.60;1.77;;;6.00;99.90;;;;;;4946595;29;20639;-72
2023/01/10 17:33:13;;;;;;;4.63;1.60;;;5.90;99.90;;;;;;4947450;29;20043;-71
2023/01/10 17:35:40;;;;;;;4.93;1.85;;;6.00;99.90;;;;;;4946799;29;20250;-70
2023/01/10 17:38:09;;;;;;;7.40;1.80;;;6.00;99.90;;;;;;4947129;29;20035;-72
2023/01/10 17:40:40;;;;;;;5.57;1.33;;;6.00;99.90;;;;;;4946632;29;20043;-72
2023/01/10 17:43:06;;;;;;;4.90;1.10;;;6.00;99.90;;;;;;4947128;29;20314;-73
2023/01/10 17:45:32;;;;;;;5.35;1.80;;;6.00;99.90;;;;;;4947381;29;20051;-74
2023/01/10 17:47:57;;;;;;;6.20;1.80;;;5.90;99.90;;;;;;4946383;29;20031;-76
2023/01/10 17:50:24;;;;;;;4.80;1.67;;;6.00;99.90;;;;;;4946367;29;20102;-74
2023/01/10 17:52:49;;;;;;;4.97;1.67;;;6.00;99.90;;;;;;4946930;29;20047;-74
2023/01/10 17:55:15;;;;;;;6.05;2.30;;;6.00;99.90;;;;;;4947267;29;20028;-74
2023/01/10 17:57:41;;;;;;;7.00;2.28;;;6.00;99.90;;;;;;4946533;29;20079;-75
2023/01/10 18:00:10;;;;;;;6.18;1.85;;;6.00;99.90;;;;;;4947380;29;20032;-73
2023/01/10 18:02:36;;;;;;;5.18;1.75;;;6.00;99.80;;;;;;4946965;29;20048;-73
2023/01/10 18:05:02;;;;;;;4.65;2.17;;;6.00;99.90;;;;;;4945757;29;20035;-74
2023/01/10 18:07:28;;;;;;;6.90;2.13;;;6.00;99.90;;;;;;4946684;29;20165;-73
2023/01/10 18:09:55;;;;;;;11.35;4.85;;;5.90;99.90;;;;;;4946787;29;20054;-73
2023/01/10 18:12:21;;;;;;;6.03;2.58;;;6.00;99.90;;;;;;4946778;29;20147;-74
2023/01/10 18:14:48;;;;;;;11.73;2.90;;;6.00;99.90;;;;;;4946023;29;20039;-73
2023/01/10 18:17:16;;;;;;;9.60;4.18;;;5.90;99.90;;;;;;4946315;29;20361;-70
2023/01/10 18:19:41;;;;;;;13.57;5.85;;;5.90;99.90;;;;;;4946116;29;20035;-73
2023/01/10 18:24:55;;;;;;;7.75;1.70;;;5.90;99.90;;;;;;4945001;29;20035;-73
2023/01/10 18:27:22;;;;;;;5.80;3.05;;;6.00;99.90;;;;;;4945956;29;20027;-71
2023/01/10 18:29:50;;;;;;;8.85;4.30;;;6.00;99.90;;;;;;4945694;29;20036;-68
2023/01/10 18:32:16;;;;;;;10.73;2.47;;;6.00;99.90;;;;;;4946154;29;20031;-67
2023/01/10 18:34:42;;;;;;;4.35;1.90;;;6.10;99.70;;;;;;4945528;29;20168;-68
2023/01/10 18:37:08;;;;;;;7.15;1.80;;;6.10;99.90;;;;;;4945912;29;20317;-69
2023/01/10 18:39:34;;;;;;;8.40;1.90;;;6.10;99.80;;;;;;4945316;29;20039;-69
2023/01/10 18:42:00;;;;;;;5.47;1.52;;;6.10;99.80;;;;;;4945802;29;20031;-67
2023/01/10 18:44:27;;;;;;;3.13;1.50;;;6.10;99.80;;;;;;4946013;29;20188;-68
2023/01/10 18:46:53;;;;;;;4.82;1.52;;;6.10;99.90;;;;;;4945108;29;20298;-67
2023/01/10 18:49:18;;;;;;;4.00;2.40;;;6.10;99.60;;;;;;4945968;29;20082;-69
2023/01/10 18:51:44;;;;;;;6.38;2.30;;;6.10;99.70;;;;;;4945224;29;20027;-68
2023/01/10 18:54:10;;;;;;;6.00;1.70;;;6.10;99.70;;;;;;4945949;29;20043;-69
2023/01/10 18:56:35;;;;;;;6.30;1.60;;;6.10;99.60;;;;;;4939517;29;20035;-68
2023/01/10 18:59:01;;;;;;;5.28;1.65;;;6.10;99.70;;;;;;4945322;29;20051;-67
2023/01/10 19:01:28;;;;;;;6.65;2.22;;;6.10;99.70;;;;;;4945403;29;20027;-70
2023/01/10 19:03:54;;;;;;;7.13;1.65;;;6.10;99.60;;;;;;4945508;29;20051;-67
2023/01/10 19:06:21;;;;;;;5.38;1.38;;;6.20;99.70;;;;;;4940429;29;20048;-70
2023/01/10 19:08:51;;;;;;;3.35;1.42;;;6.20;99.80;;;;;;4925302;29;20050;-69
2023/01/10 19:11:18;;;;;;;6.85;2.67;;;6.20;99.60;;;;;;4925899;29;20087;-68
2023/01/10 19:13:46;;;;;;;5.45;2.10;;;6.20;99.70;;;;;;4925799;29;20024;-69
2023/01/10 19:16:20;;;;;;;6.40;2.10;;;6.20;99.90;;;;;;4926249;29;20024;-70
2023/01/10 19:18:55;;;;;;;7.28;2.38;;;6.20;99.90;;;;;;4925794;29;20344;-69
2023/01/10 19:21:26;;;;;;;7.60;1.90;;;6.20;99.90;;;;;;4925020;29;20024;-70
2023/01/10 19:23:54;;;;;;;6.88;2.00;;;6.20;99.90;;;;;;4925947;29;20032;-71
2023/01/10 19:26:20;;;;;;;7.55;2.28;;;6.20;99.90;;;;;;4928614;29;20028;-69
2023/01/10 19:28:46;;;;;;;9.45;2.90;;;6.10;99.90;;;;;;4925380;29;20095;-70
2023/01/10 19:31:15;;;;;;;10.02;5.13;;;6.10;99.90;;;;;;4926264;29;20039;-69
2023/01/10 19:33:42;;;;;;;10.63;4.60;;;6.00;99.90;;;;;;4925737;29;20096;-68
2023/01/10 19:36:09;;;;;;;6.93;2.72;;;6.10;99.90;;;;;;4929116;29;20078;-69
2023/01/10 19:38:35;;;;;;;6.10;2.58;;;6.00;99.90;;;;;;4924520;29;20024;-69
2023/01/10 19:41:01;;;;;;;7.95;2.42;;;6.00;99.90;;;;;;4929909;29;20030;-69
2023/01/10 19:43:27;;;;;;;6.38;2.45;;;6.00;99.90;;;;;;4944681;29;20306;-70
2023/01/10 19:45:53;;;;;;;22.55;13.52;;;6.00;99.90;;;;;;4943871;29;20039;-70
2023/01/10 19:48:18;;;;;;;10.35;4.60;;;6.10;99.90;;;;;;4944613;29;20028;-68